Time,TemperatureF,DewpointF,PressureIn,WindDirection,WindDirectionDegrees,WindSpeedMPH,WindSpeedGustMPH,Humidity,HourlyPrecipIn,Conditions,Clouds,dailyrainin,SolarRadiationWatts/m^2,SoftwareType,DateUTC
2013-05-14 00:00:00,50.4,34.8,29.94,North,3,7.0,17.0,55,0.00,BKN,BKN,0.00,0.0,WeatherDisplay:10.37,2013-05-14 04:00:00,
2013-05-14 00:05:00,50.3,33.8,29.94,North,3,8.0,16.0,53,0.00,OVC,OVC,0.00,0.0,WeatherDisplay:10.37,2013-05-14 04:05:00,
2013-05-14 00:15:00,50.2,33.7,29.94,North,350,7.0,15.0,53,0.00,OVC,OVC,0.00,0.0,WeatherDisplay:10.37,2013-05-14 04:15:00,
2013-05-14 00:20:00,50.1,34.1,29.94,North,354,8.0,12.0,54,0.00,OVC,OVC,0.00,0.0,WeatherDisplay:10.37,2013-05-14 04:20:00,
2013-05-14 00:25:00,50.1,34.1,29.94,North,1,7.0,15.0,54,0.00,OVC,OVC,0.00,0.0,WeatherDisplay:10.37,2013-05-14 04:25:00,
2013-05-14 00:30:00,50.2,34.1,29.94,North,7,7.0,15.0,54,0.00,OVC,OVC,0.00,0.0,WeatherDisplay:10.37,2013-05-14 04:30:00,
2013-05-14 00:35:00,50.1,33.6,29.94,North,360,7.0,15.0,53,0.00,OVC,OVC,0.00,0.0,WeatherDisplay:10.37,2013-05-14 04:35:00,
2013-05-14 00:40:00,50.1,33.6,29.94,North,356,7.0,13.0,53,0.00,OVC,OVC,0.00,0.0,WeatherDisplay:10.37,2013-05-14 04:40:00,
2013-05-14 00:45:00,50.0,33.5,29.94,North,350,7.0,13.0,53,0.00,OVC,OVC,0.00,0.0,WeatherDisplay:10.37,2013-05-14 04:45:00,
2013-05-14 00:50:00,50.0,34.0,29.94,North,358,6.0,20.0,54,0.00,OVC,OVC,0.00,0.0,WeatherDisplay:10.37,2013-05-14 04:50:00,
2013-05-14 00:55:00,49.9,33.9,29.94,North,357,3.0,12.0,54,0.00,OVC,OVC,0.00,0.0,WeatherDisplay:10.37,2013-05-14 04:55:00,
2013-05-14 01:00:00,49.9,34.3,29.94,North,358,5.0,12.0,55,0.00,OVC,OVC,0.00,0.0,WeatherDisplay:10.37,2013-05-14 05:00:00,
2013-05-14 01:05:00,49.8,34.7,29.94,North,355,6.0,13.0,56,0.00,OVC,OVC,0.00,0.0,WeatherDisplay:10.37,2013-05-14 05:05:00,
2013-05-14 01:10:00,49.8,34.7,29.94,North,353,8.0,14.0,56,0.00,OVC,OVC,0.00,0.0,WeatherDisplay:10.37,2013-05-14 05:10:00,
2013-05-14 01:15:00,49.8,34.7,29.93,North,355,9.0,16.0,56,0.00,OVC,OVC,0.00,0.0,WeatherDisplay:10.37,2013-05-14 05:15:00,
2013-05-14 01:20:00,49.8,34.7,29.93,North,358,7.0,13.0,56,0.00,OVC,OVC,0.00,0.0,WeatherDisplay:10.37,2013-05-14 05:20:00,
2013-05-14 01:25:00,49.8,34.7,29.93,North,351,6.0,17.0,56,0.00,OVC,OVC,0.00,0.0,WeatherDisplay:10.37,2013-05-14 05:25:00,
2013-05-14 01:30:00,49.9,34.8,29.93,North,354,8.0,21.0,56,0.00,OVC,OVC,0.00,0.0,WeatherDisplay:10.37,2013-05-14 05:30:00,
2013-05-14 01:35:00,49.9,35.3,29.93,North,358,7.0,14.0,57,0.00,OVC,OVC,0.00,0.0,WeatherDisplay:10.37,2013-05-14 05:35:00,
2013-05-14 01:40:00,49.9,35.7,29.93,North,359,2.0,14.0,58,0.00,OVC,OVC,0.00,0.0,WeatherDisplay:10.37,2013-05-14 05:40:00,
2013-05-14 01:45:00,49.8,35.6,29.93,North,2,9.0,17.0,58,0.00,OVC,OVC,0.00,0.0,WeatherDisplay:10.37,2013-05-14 05:45:00,
2013-05-14 01:50:00,49.8,36.0,29.93,North,359,3.0,13.0,59,0.00,OVC,OVC,0.00,0.0,WeatherDisplay:10.37,2013-05-14 05:50:00,
2013-05-14 01:55:00,49.7,35.5,29.93,North,356,8.0,17.0,58,0.00,OVC,OVC,0.00,0.0,WeatherDisplay:10.37,2013-05-14 05:55:00,
2013-05-14 02:00:00,49.7,35.9,29.93,North,353,10.0,16.0,59,0.00,OVC,OVC,0.00,0.0,WeatherDisplay:10.37,2013-05-14 06:00:00,
2013-05-14 02:05:00,49.7,35.9,29.93,North,358,7.0,15.0,59,0.00,OVC,OVC,0.00,0.0,WeatherDisplay:10.37,2013-05-14 06:05:00,
2013-05-14 02:10:00,49.6,36.3,29.93,North,358,7.0,21.0,60,0.00,OVC,OVC,0.00,0.0,WeatherDisplay:10.37,2013-05-14 06:10:00,
2013-05-14 02:15:00,49.5,36.6,29.93,North,349,7.0,16.0,61,0.00,OVC,OVC,0.00,0.0,WeatherDisplay:10.37,2013-05-14 06:15:00,
2013-05-14 02:20:00,49.5,36.6,29.93,North,352,2.0,21.0,61,0.00,OVC,OVC,0.00,0.0,WeatherDisplay:10.37,2013-05-14 06:20:00,
2013-05-14 02:25:00,49.4,36.1,29.93,North,354,6.0,12.0,60,0.00,OVC,OVC,0.00,0.0,WeatherDisplay:10.37,2013-05-14 06:25:00,
2013-05-14 02:30:00,49.3,36.0,29.93,NNW,341,9.0,21.0,60,0.00,OVC,OVC,0.00,0.0,WeatherDisplay:10.37,2013-05-14 06:30:00,
2013-05-14 02:35:00,49.3,36.0,29.93,NNW,347,6.0,21.0,60,0.00,OVC,OVC,0.00,0.0,WeatherDisplay:10.37,2013-05-14 06:35:00,
2013-05-14 02:40:00,49.2,35.5,29.93,North,351,6.0,12.0,59,0.00,OVC,OVC,0.00,0.0,WeatherDisplay:10.37,2013-05-14 06:40:00,
2013-05-14 02:45:00,49.2,35.5,29.93,North,356,5.0,14.0,59,0.00,OVC,OVC,0.00,0.0,WeatherDisplay:10.37,2013-05-14 06:45:00,
2013-05-14 02:50:00,49.2,35.9,29.93,North,359,8.0,15.0,60,0.00,OVC,OVC,0.00,0.0,WeatherDisplay:10.37,2013-05-14 06:50:00,
2013-05-14 02:55:00,49.1,36.2,29.93,North,354,6.0,21.0,61,0.00,OVC,OVC,0.00,0.0,WeatherDisplay:10.37,2013-05-14 06:55:00,
2013-05-14 03:00:00,49.1,36.2,29.93,North,350,6.0,16.0,61,0.00,OVC,OVC,0.00,0.0,WeatherDisplay:10.37,2013-05-14 07:00:00,
2013-05-14 03:05:00,49.1,35.8,29.94,North,352,9.0,15.0,60,0.00,OVC,OVC,0.00,0.0,WeatherDisplay:10.37,2013-05-14 07:05:00,
2013-05-14 03:10:00,49.0,36.2,29.94,North,358,7.0,21.0,61,0.00,OVC,OVC,0.00,0.0,WeatherDisplay:10.37,2013-05-14 07:10:00,
2013-05-14 03:15:00,49.0,36.5,29.93,North,358,6.0,12.0,62,0.00,OVC,OVC,0.00,0.0,WeatherDisplay:10.37,2013-05-14 07:15:00,
2013-05-14 03:20:00,49.0,36.5,29.93,North,354,7.0,16.0,62,0.00,OVC,OVC,0.00,0.0,WeatherDisplay:10.37,2013-05-14 07:20:00,
2013-05-14 03:25:00,48.9,37.3,29.93,North,353,6.0,12.0,64,0.00,OVC,OVC,0.00,0.0,WeatherDisplay:10.37,2013-05-14 07:25:00,
2013-05-14 03:30:00,48.9,37.2,29.93,North,352,3.0,21.0,64,0.00,OVC,OVC,0.00,0.0,WeatherDisplay:10.37,2013-05-14 07:30:00,
2013-05-14 03:35:00,48.8,37.6,29.93,North,358,6.0,21.0,65,0.00,OVC,OVC,0.00,0.0,WeatherDisplay:10.37,2013-05-14 07:35:00,
2013-05-14 03:40:00,48.8,37.6,29.93,North,355,5.0,14.0,65,0.00,OVC,OVC,0.00,0.0,WeatherDisplay:10.37,2013-05-14 07:40:00,
2013-05-14 03:45:00,48.8,37.2,29.93,North,359,8.0,13.0,64,0.00,OVC,OVC,0.00,0.0,WeatherDisplay:10.37,2013-05-14 07:45:00,
2013-05-14 03:50:00,48.8,37.2,29.92,North,359,8.0,21.0,64,0.00,OVC,OVC,0.00,0.0,WeatherDisplay:10.37,2013-05-14 07:50:00,
2013-05-14 03:55:00,48.8,36.8,29.92,North,8,5.0,12.0,63,0.00,OVC,OVC,0.00,0.0,WeatherDisplay:10.37,2013-05-14 07:55:00,
2013-05-14 04:00:00,48.7,37.1,29.92,NNE,15,6.0,12.0,64,0.00,OVC,OVC,0.00,0.0,WeatherDisplay:10.37,2013-05-14 08:00:00,
2013-05-14 04:05:00,48.6,37.0,29.92,North,6,5.0,10.0,64,0.00,OVC,OVC,0.00,0.0,WeatherDisplay:10.37,2013-05-14 08:05:00,
2013-05-14 04:10:00,48.6,37.0,29.92,North,5,7.0,12.0,64,0.00,OVC,OVC,0.00,0.0,WeatherDisplay:10.37,2013-05-14 08:10:00,
2013-05-14 04:15:00,48.6,36.9,29.92,North,5,2.0,7.0,64,0.00,OVC,OVC,0.00,0.0,WeatherDisplay:10.37,2013-05-14 08:15:00,
2013-05-14 04:20:00,48.5,37.3,29.92,North,358,3.0,21.0,65,0.00,OVC,OVC,0.00,0.0,WeatherDisplay:10.37,2013-05-14 08:20:00,
2013-05-14 04:25:00,48.5,37.7,29.92,North,357,3.0,21.0,66,0.00,OVC,OVC,0.00,0.0,WeatherDisplay:10.37,2013-05-14 08:25:00,
2013-05-14 04:30:00,48.5,37.6,29.92,North,1,5.0,10.0,66,0.00,OVC,OVC,0.00,0.0,WeatherDisplay:10.37,2013-05-14 08:30:00,
2013-05-14 04:35:00,48.5,37.3,29.92,North,356,5.0,10.0,65,0.00,OVC,OVC,0.00,0.0,WeatherDisplay:10.37,2013-05-14 08:35:00,
2013-05-14 04:40:00,48.5,37.3,29.92,North,350,3.0,21.0,65,0.00,OVC,OVC,0.00,0.0,WeatherDisplay:10.37,2013-05-14 08:40:00,
2013-05-14 04:45:00,48.5,36.5,29.92,North,351,5.0,12.0,63,0.00,OVC,OVC,0.00,0.0,WeatherDisplay:10.37,2013-05-14 08:45:00,
2013-05-14 04:50:00,48.5,35.2,29.92,North,353,6.0,13.0,60,0.00,OVC,OVC,0.00,0.0,WeatherDisplay:10.37,2013-05-14 08:50:00,
2013-05-14 04:55:00,48.5,34.8,29.92,North,351,6.0,21.0,59,0.00,OVC,OVC,0.00,0.0,WeatherDisplay:10.37,2013-05-14 08:55:00,
2013-05-14 05:00:00,48.5,34.8,29.92,NNW,348,7.0,13.0,59,0.00,OVC,OVC,0.00,0.0,WeatherDisplay:10.37,2013-05-14 09:00:00,
2013-05-14 05:05:00,48.4,35.5,29.92,North,351,1.0,6.0,61,0.00,OVC,OVC,0.00,0.0,WeatherDisplay:10.37,2013-05-14 09:05:00,
2013-05-14 05:10:00,48.2,35.0,29.92,North,355,5.0,21.0,60,0.00,OVC,OVC,0.00,0.0,WeatherDisplay:10.37,2013-05-14 09:10:00,
2013-05-14 05:15:00,48.1,35.3,29.92,North,353,2.0,6.0,61,0.00,OVC,OVC,0.00,0.0,WeatherDisplay:10.37,2013-05-14 09:15:00,
2013-05-14 05:20:00,48.0,35.6,29.92,North,349,5.0,9.0,62,0.00,OVC,OVC,0.00,0.0,WeatherDisplay:10.37,2013-05-14 09:20:00,
2013-05-14 05:25:00,48.0,35.2,29.92,North,349,5.0,21.0,61,0.00,OVC,OVC,0.00,0.0,WeatherDisplay:10.37,2013-05-14 09:25:00,
2013-05-14 05:30:00,48.1,35.7,29.92,North,350,3.0,21.0,62,0.00,OVC,OVC,0.00,0.0,WeatherDisplay:10.37,2013-05-14 09:30:00,
2013-05-14 05:35:00,48.1,35.3,29.92,NNW,345,7.0,21.0,61,0.00,OVC,OVC,0.00,0.0,WeatherDisplay:10.37,2013-05-14 09:35:00,
2013-05-14 05:40:00,48.2,35.4,29.92,NNW,347,2.0,21.0,61,0.00,OVC,OVC,0.00,0.0,WeatherDisplay:10.37,2013-05-14 09:40:00,
2013-05-14 05:45:00,48.3,35.5,29.92,North,350,3.0,7.0,61,0.00,OVC,OVC,0.00,0.0,WeatherDisplay:10.37,2013-05-14 09:45:00,
2013-05-14 05:50:00,48.4,36.4,29.93,NNW,339,5.0,21.0,63,0.00,OVC,OVC,0.00,5.0,WeatherDisplay:10.37,2013-05-14 09:50:00,
2013-05-14 05:55:00,48.5,36.5,29.93,NNW,333,5.0,10.0,63,0.00,OVC,OVC,0.00,7.0,WeatherDisplay:10.37,2013-05-14 09:55:00,
2013-05-14 06:00:00,48.6,36.6,29.93,NNW,338,7.0,12.0,63,0.00,OVC,OVC,0.00,9.0,WeatherDisplay:10.37,2013-05-14 10:00:00,
2013-05-14 06:05:00,48.7,37.1,29.93,NNW,343,7.0,13.0,64,0.00,OVC,OVC,0.00,11.0,WeatherDisplay:10.37,2013-05-14 10:05:00,
2013-05-14 06:10:00,48.7,37.5,29.93,NNW,334,3.0,21.0,65,0.00,OVC,OVC,0.00,12.0,WeatherDisplay:10.37,2013-05-14 10:10:00,
2013-05-14 06:15:00,48.7,37.5,29.93,NNW,334,5.0,10.0,65,0.00,OVC,OVC,0.00,14.0,WeatherDisplay:10.37,2013-05-14 10:15:00,
2013-05-14 06:20:00,48.7,37.8,29.93,NNW,343,6.0,10.0,66,0.00,OVC,OVC,0.00,18.0,WeatherDisplay:10.37,2013-05-14 10:20:00,
2013-05-14 06:25:00,48.7,37.8,29.93,NNW,347,5.0,21.0,66,0.00,OVC,OVC,0.00,21.0,WeatherDisplay:10.37,2013-05-14 10:25:00,
2013-05-14 06:30:00,48.7,38.2,29.94,NNW,342,3.0,7.0,67,0.00,OVC,OVC,0.00,23.0,WeatherDisplay:10.37,2013-05-14 10:30:00,
2013-05-14 06:35:00,48.7,37.8,29.94,NNW,341,5.0,21.0,66,0.00,OVC,OVC,0.00,26.0,WeatherDisplay:10.37,2013-05-14 10:35:00,
2013-05-14 06:40:00,48.7,37.1,29.94,NNW,342,3.0,9.0,64,0.00,OVC,OVC,0.00,28.0,WeatherDisplay:10.37,2013-05-14 10:40:00,
2013-05-14 06:45:00,48.7,36.7,29.94,NNW,334,5.0,11.0,63,0.00,OVC,OVC,0.00,30.0,WeatherDisplay:10.37,2013-05-14 10:45:00,
2013-05-14 06:50:00,48.7,36.3,29.95,NNW,338,6.0,12.0,62,0.00,OVC,OVC,0.00,35.0,WeatherDisplay:10.37,2013-05-14 10:50:00,
2013-05-14 06:55:00,48.7,36.3,29.95,NNW,347,5.0,11.0,62,0.00,OVC,OVC,0.00,40.0,WeatherDisplay:10.37,2013-05-14 10:55:00,
2013-05-14 07:05:00,48.8,36.4,29.95,NNW,347,3.0,9.0,62,0.00,OVC,OVC,0.00,49.0,WeatherDisplay:10.37,2013-05-14 11:05:00,
2013-05-14 07:10:00,48.8,36.8,29.95,North,349,6.0,12.0,63,0.00,OVC,OVC,0.00,51.0,WeatherDisplay:10.37,2013-05-14 11:10:00,
2013-05-14 07:15:00,48.9,37.3,29.95,NNW,342,5.0,21.0,64,0.00,OVC,OVC,0.00,49.0,WeatherDisplay:10.37,2013-05-14 11:15:00,
2013-05-14 07:20:00,48.9,37.7,29.95,NNW,340,5.0,10.0,65,0.00,OVC,OVC,0.00,44.0,WeatherDisplay:10.37,2013-05-14 11:20:00,
2013-05-14 07:25:00,49.0,37.3,29.95,North,359,8.0,13.0,64,0.00,OVC,OVC,0.00,42.0,WeatherDisplay:10.37,2013-05-14 11:25:00,
2013-05-14 07:30:00,49.0,38.1,29.96,North,354,3.0,13.0,66,0.00,OVC,OVC,0.00,39.0,WeatherDisplay:10.37,2013-05-14 11:30:00,
2013-05-14 07:35:00,49.1,39.7,29.96,NNW,347,6.0,13.0,70,0.00,OVC,OVC,0.00,35.0,WeatherDisplay:10.37,2013-05-14 11:35:00,
2013-05-14 07:40:00,49.1,40.1,29.96,North,353,7.0,16.0,71,0.00,OVC,OVC,0.00,39.0,WeatherDisplay:10.37,2013-05-14 11:40:00,
2013-05-14 07:45:00,49.1,39.7,29.96,North,354,6.0,17.0,70,0.00,OVC,OVC,0.00,40.0,WeatherDisplay:10.37,2013-05-14 11:45:00,
2013-05-14 07:50:00,49.1,39.7,29.96,North,356,7.0,14.0,70,0.00,OVC,OVC,0.00,39.0,WeatherDisplay:10.37,2013-05-14 11:50:00,
2013-05-14 07:55:00,49.1,40.1,29.96,North,352,6.0,16.0,71,0.00,OVC,OVC,0.00,33.0,WeatherDisplay:10.37,2013-05-14 11:55:00,
2013-05-14 08:00:00,49.1,40.5,29.96,North,358,9.0,12.0,72,0.00,OVC,OVC,0.00,30.0,WeatherDisplay:10.37,2013-05-14 12:00:00,
2013-05-14 08:05:00,48.9,41.0,29.96,North,356,5.0,10.0,74,0.00,OVC,OVC,0.00,30.0,WeatherDisplay:10.37,2013-05-14 12:05:00,
2013-05-14 08:10:00,48.6,40.7,29.96,North,5,7.0,14.0,74,0.01,RA,RA,0.01,53.0,WeatherDisplay:10.37,2013-05-14 12:10:00,
2013-05-14 08:15:00,48.3,41.1,29.96,North,11,7.0,12.0,76,0.01,RA,RA,0.01,46.0,WeatherDisplay:10.37,2013-05-14 12:15:00,
2013-05-14 08:20:00,48.0,41.1,29.96,NNE,13,5.0,21.0,77,0.00,OVC,OVC,0.01,40.0,WeatherDisplay:10.37,2013-05-14 12:20:00,
2013-05-14 08:25:00,47.9,40.4,29.96,North,7,10.0,20.0,75,0.00,OVC,OVC,0.01,62.0,WeatherDisplay:10.37,2013-05-14 12:25:00,
2013-05-14 08:30:00,48.0,40.5,29.96,North,10,3.0,21.0,75,0.00,OVC,OVC,0.01,91.0,WeatherDisplay:10.37,2013-05-14 12:30:00,
2013-05-14 08:35:00,48.2,39.9,29.96,North,7,10.0,21.0,73,0.00,OVC,OVC,0.01,107.0,WeatherDisplay:10.37,2013-05-14 12:35:00,
2013-05-14 08:40:00,48.5,39.5,29.96,North,5,10.0,21.0,71,0.00,OVC,OVC,0.01,111.0,WeatherDisplay:10.37,2013-05-14 12:40:00,
2013-05-14 08:45:00,48.8,39.0,29.96,North,7,6.0,21.0,69,0.00,OVC,OVC,0.01,121.0,WeatherDisplay:10.37,2013-05-14 12:45:00,
2013-05-14 08:50:00,49.0,39.3,29.96,NNE,14,7.0,21.0,69,0.00,OVC,OVC,0.01,130.0,WeatherDisplay:10.37,2013-05-14 12:50:00,
2013-05-14 08:55:00,49.1,39.0,29.96,NNE,18,5.0,21.0,68,0.00,OVC,OVC,0.01,114.0,WeatherDisplay:10.37,2013-05-14 12:55:00,
2013-05-14 09:00:00,49.2,39.5,29.96,NNE,14,6.0,15.0,69,0.00,OVC,OVC,0.01,123.0,WeatherDisplay:10.37,2013-05-14 13:00:00,
2013-05-14 09:05:00,49.3,39.6,29.97,North,8,5.0,15.0,69,0.00,OVC,OVC,0.01,172.0,WeatherDisplay:10.37,2013-05-14 13:05:00,
2013-05-14 09:10:00,49.5,39.7,29.97,North,9,10.0,18.0,69,0.00,OVC,OVC,0.01,197.0,WeatherDisplay:10.37,2013-05-14 13:10:00,
2013-05-14 09:15:00,49.7,39.1,29.97,North,4,7.0,18.0,67,0.00,OVC,OVC,0.01,207.0,WeatherDisplay:10.37,2013-05-14 13:15:00,
2013-05-14 09:20:00,49.8,38.9,29.97,North,7,8.0,15.0,66,0.00,OVC,OVC,0.01,253.0,WeatherDisplay:10.37,2013-05-14 13:20:00,
2013-05-14 09:25:00,50.0,38.3,29.97,NNE,14,8.0,21.0,64,0.00,OVC,OVC,0.01,290.0,WeatherDisplay:10.37,2013-05-14 13:25:00,
2013-05-14 09:30:00,50.2,38.9,29.97,NNE,13,5.0,14.0,65,0.00,OVC,OVC,0.01,309.0,WeatherDisplay:10.37,2013-05-14 13:30:00,
2013-05-14 09:35:00,50.6,39.3,29.97,NNE,16,8.0,16.0,65,0.00,OVC,OVC,0.01,330.0,WeatherDisplay:10.37,2013-05-14 13:35:00,
2013-05-14 09:40:00,50.9,39.5,29.97,NNE,16,5.0,15.0,65,0.00,OVC,OVC,0.01,524.0,WeatherDisplay:10.37,2013-05-14 13:40:00,
2013-05-14 09:45:00,51.7,39.9,29.97,NNE,15,6.0,14.0,64,0.00,OVC,OVC,0.01,353.0,WeatherDisplay:10.37,2013-05-14 13:45:00,
2013-05-14 09:50:00,51.7,39.5,29.97,NNE,15,5.0,15.0,63,0.00,OVC,OVC,0.01,420.0,WeatherDisplay:10.37,2013-05-14 13:50:00,
2013-05-14 09:55:00,51.5,38.9,29.97,NNE,17,6.0,21.0,62,0.00,OVC,OVC,0.01,318.0,WeatherDisplay:10.37,2013-05-14 13:55:00,
2013-05-14 10:00:00,51.5,38.9,29.96,NNE,18,7.0,15.0,62,0.00,OVC,OVC,0.01,346.0,WeatherDisplay:10.37,2013-05-14 14:00:00,
2013-05-14 10:05:00,51.8,38.8,29.96,NNE,16,12.0,18.0,61,0.00,OVC,OVC,0.01,336.0,WeatherDisplay:10.37,2013-05-14 14:05:00,
2013-05-14 10:10:00,51.5,39.3,29.96,NNE,13,5.0,15.0,63,0.00,OVC,OVC,0.01,334.0,WeatherDisplay:10.37,2013-05-14 14:10:00,
2013-05-14 10:15:00,51.7,39.5,29.96,NNE,15,7.0,16.0,63,0.00,OVC,OVC,0.01,313.0,WeatherDisplay:10.37,2013-05-14 14:15:00,
2013-05-14 10:20:00,51.5,38.9,29.96,North,11,9.0,21.0,62,0.00,OVC,OVC,0.01,338.0,WeatherDisplay:10.37,2013-05-14 14:20:00,
2013-05-14 10:25:00,51.9,39.3,29.96,NNE,16,8.0,17.0,62,0.00,OVC,OVC,0.01,621.0,WeatherDisplay:10.37,2013-05-14 14:25:00,
2013-05-14 10:30:00,53.0,39.5,29.96,NNE,12,7.0,15.0,60,0.00,OVC,OVC,0.01,868.0,WeatherDisplay:10.37,2013-05-14 14:30:00,
2013-05-14 10:35:00,53.6,39.2,29.96,North,6,9.0,21.0,58,0.00,OVC,OVC,0.01,139.0,WeatherDisplay:10.37,2013-05-14 14:35:00,
2013-05-14 10:40:00,52.6,37.8,29.96,North,9,6.0,21.0,57,0.00,OVC,OVC,0.01,352.0,WeatherDisplay:10.37,2013-05-14 14:40:00,
2013-05-14 10:45:00,53.2,37.9,29.97,North,7,12.0,21.0,56,0.00,OVC,OVC,0.01,944.0,WeatherDisplay:10.37,2013-05-14 14:45:00,
2013-05-14 10:50:00,53.5,38.2,29.97,North,355,5.0,16.0,56,0.00,OVC,OVC,0.01,519.0,WeatherDisplay:10.37,2013-05-14 14:50:00,
2013-05-14 10:55:00,53.5,38.2,29.97,North,6,7.0,15.0,56,0.00,OVC,OVC,0.01,276.0,WeatherDisplay:10.37,2013-05-14 14:55:00,
2013-05-14 11:00:00,53.6,37.4,29.97,North,6,8.0,21.0,54,0.00,OVC,OVC,0.01,882.0,WeatherDisplay:10.37,2013-05-14 15:00:00,
2013-05-14 11:05:00,54.7,38.4,29.97,NNE,13,5.0,14.0,54,0.00,BKN,BKN,0.01,877.0,WeatherDisplay:10.37,2013-05-14 15:05:00,
2013-05-14 11:10:00,55.7,39.3,29.97,NNE,22,5.0,12.0,54,0.00,BKN,BKN,0.01,933.0,WeatherDisplay:10.37,2013-05-14 15:10:00,
2013-05-14 11:15:00,54.6,36.3,29.97,NNW,342,9.0,14.0,50,0.00,BKN,BKN,0.01,139.0,WeatherDisplay:10.37,2013-05-14 15:15:00,
2013-05-14 11:20:00,53.5,38.2,29.97,NNW,345,9.0,21.0,56,0.00,BKN,BKN,0.01,942.0,WeatherDisplay:10.37,2013-05-14 15:20:00,
2013-05-14 11:25:00,54.9,40.4,29.97,North,3,6.0,14.0,58,0.00,BKN,BKN,0.01,963.0,WeatherDisplay:10.37,2013-05-14 15:25:00,
2013-05-14 11:30:00,56.1,40.6,29.98,NNE,15,6.0,21.0,56,0.00,BKN,BKN,0.01,947.0,WeatherDisplay:10.37,2013-05-14 15:30:00,
2013-05-14 11:35:00,55.8,38.9,29.98,North,8,7.0,13.0,53,0.00,BKN,BKN,0.01,932.0,WeatherDisplay:10.37,2013-05-14 15:35:00,
2013-05-14 11:40:00,55.9,40.0,29.98,North,358,7.0,21.0,55,0.00,BKN,BKN,0.01,925.0,WeatherDisplay:10.37,2013-05-14 15:40:00,
2013-05-14 11:45:00,55.2,39.3,29.98,North,351,10.0,21.0,55,0.00,BKN,BKN,0.01,930.0,WeatherDisplay:10.37,2013-05-14 15:45:00,
2013-05-14 11:50:00,54.5,38.7,29.98,NNW,346,6.0,12.0,55,0.00,BKN,BKN,0.01,965.0,WeatherDisplay:10.37,2013-05-14 15:50:00,
2013-05-14 11:55:00,54.8,38.5,29.98,North,349,6.0,21.0,54,0.00,BKN,BKN,0.01,935.0,WeatherDisplay:10.37,2013-05-14 15:55:00,
2013-05-14 12:00:00,55.1,38.7,29.98,NNW,347,6.0,13.0,54,0.00,BKN,BKN,0.01,951.0,WeatherDisplay:10.37,2013-05-14 16:00:00,
2013-05-14 12:05:00,55.8,38.4,29.98,NNW,348,6.0,12.0,52,0.00,BKN,BKN,0.01,969.0,WeatherDisplay:10.37,2013-05-14 16:05:00,
2013-05-14 12:10:00,56.8,39.3,29.98,NNE,23,5.0,9.0,52,0.00,BKN,BKN,0.01,877.0,WeatherDisplay:10.37,2013-05-14 16:10:00,
2013-05-14 12:15:00,56.9,38.4,29.98,NNE,33,5.0,12.0,50,0.00,BKN,BKN,0.01,1021.0,WeatherDisplay:10.37,2013-05-14 16:15:00,
2013-05-14 12:20:00,56.0,37.6,29.98,North,9,7.0,21.0,50,0.00,BKN,BKN,0.01,986.0,WeatherDisplay:10.37,2013-05-14 16:20:00,
2013-05-14 12:25:00,55.5,38.2,29.98,North,353,7.0,21.0,52,0.00,BKN,BKN,0.01,963.0,WeatherDisplay:10.37,2013-05-14 16:25:00,
2013-05-14 12:30:00,56.9,38.4,29.98,North,351,6.0,21.0,50,0.00,BKN,BKN,0.01,930.0,WeatherDisplay:10.37,2013-05-14 16:30:00,
2013-05-14 12:35:00,56.7,36.7,29.98,NNW,343,3.0,21.0,47,0.00,BKN,BKN,0.01,940.0,WeatherDisplay:10.37,2013-05-14 16:35:00,
2013-05-14 12:40:00,56.0,35.0,29.98,NW,324,5.0,21.0,45,0.00,BKN,BKN,0.01,940.0,WeatherDisplay:10.37,2013-05-14 16:40:00,
2013-05-14 12:45:00,54.8,33.3,29.97,NW,321,7.0,12.0,44,0.00,BKN,BKN,0.01,942.0,WeatherDisplay:10.37,2013-05-14 16:45:00,
2013-05-14 12:50:00,55.9,32.5,29.97,NNW,348,7.0,14.0,41,0.00,BKN,BKN,0.01,939.0,WeatherDisplay:10.37,2013-05-14 16:50:00,
2013-05-14 12:55:00,56.3,34.7,29.97,NNW,344,8.0,14.0,44,0.00,BKN,BKN,0.01,939.0,WeatherDisplay:10.37,2013-05-14 16:55:00,
2013-05-14 13:00:00,56.1,35.6,29.97,NNW,347,7.0,15.0,46,0.00,BKN,BKN,0.01,935.0,WeatherDisplay:10.37,2013-05-14 17:00:00,
2013-05-14 13:05:00,56.5,33.7,29.98,North,355,6.0,12.0,42,0.00,BKN,BKN,0.01,940.0,WeatherDisplay:10.37,2013-05-14 17:05:00,
2013-05-14 13:10:00,56.9,34.0,29.98,North,349,5.0,21.0,42,0.00,BKN,BKN,0.01,979.0,WeatherDisplay:10.37,2013-05-14 17:10:00,
2013-05-14 13:15:00,58.0,34.4,29.97,North,10,3.0,12.0,41,0.00,BKN,BKN,0.01,981.0,WeatherDisplay:10.37,2013-05-14 17:15:00,
2013-05-14 13:20:00,57.7,34.1,29.97,NE,37,3.0,21.0,41,0.00,BKN,BKN,0.01,969.0,WeatherDisplay:10.37,2013-05-14 17:20:00,
2013-05-14 13:25:00,56.6,31.3,29.97,North,356,6.0,12.0,38,0.00,BKN,BKN,0.01,937.0,WeatherDisplay:10.37,2013-05-14 17:25:00,
2013-05-14 13:30:00,57.3,33.8,29.97,NW,323,5.0,21.0,41,0.00,BKN,BKN,0.01,923.0,WeatherDisplay:10.37,2013-05-14 17:30:00,
2013-05-14 13:35:00,57.4,32.6,29.97,NNE,24,2.0,21.0,39,0.00,BKN,BKN,0.01,918.0,WeatherDisplay:10.37,2013-05-14 17:35:00,
2013-05-14 13:40:00,56.8,32.1,29.97,ENE,70,2.0,6.0,39,0.00,BKN,BKN,0.01,932.0,WeatherDisplay:10.37,2013-05-14 17:40:00,
2013-05-14 13:45:00,57.2,33.1,29.97,North,358,6.0,12.0,40,0.00,BKN,BKN,0.01,962.0,WeatherDisplay:10.37,2013-05-14 17:45:00,
2013-05-14 13:50:00,57.5,33.3,29.97,NNW,335,3.0,21.0,40,0.00,BKN,BKN,0.01,633.0,WeatherDisplay:10.37,2013-05-14 17:50:00,
2013-05-14 13:55:00,58.2,33.4,29.97,NNW,342,5.0,7.0,39,0.00,BKN,BKN,0.01,455.0,WeatherDisplay:10.37,2013-05-14 17:55:00,
2013-05-14 14:00:00,57.7,34.1,29.97,North,359,5.0,21.0,41,0.00,BKN,BKN,0.01,443.0,WeatherDisplay:10.37,2013-05-14 18:00:00,
2013-05-14 14:05:00,57.6,34.1,29.98,North,1,5.0,9.0,41,0.00,BKN,BKN,0.01,415.0,WeatherDisplay:10.37,2013-05-14 18:05:00,
2013-05-14 14:10:00,57.4,33.9,29.98,North,358,3.0,21.0,41,0.00,BKN,BKN,0.01,369.0,WeatherDisplay:10.37,2013-05-14 18:10:00,
2013-05-14 14:15:00,56.6,33.8,29.97,North,350,2.0,21.0,42,0.00,BKN,BKN,0.01,468.0,WeatherDisplay:10.37,2013-05-14 18:15:00,
2013-05-14 14:20:00,56.8,33.3,29.97,NNW,340,2.0,21.0,41,0.00,BKN,BKN,0.01,411.0,WeatherDisplay:10.37,2013-05-14 18:20:00,
2013-05-14 14:25:00,56.9,34.0,29.97,NNW,337,3.0,21.0,42,0.00,BKN,BKN,0.01,1011.0,WeatherDisplay:10.37,2013-05-14 18:25:00,
2013-05-14 14:30:00,57.9,33.7,29.97,North,7,7.0,21.0,40,0.00,BKN,BKN,0.01,854.0,WeatherDisplay:10.37,2013-05-14 18:30:00,
2013-05-14 14:40:00,57.4,33.9,29.97,NNW,347,8.0,13.0,41,0.00,BKN,BKN,0.01,610.0,WeatherDisplay:10.37,2013-05-14 18:40:00,
2013-05-14 14:45:00,57.5,32.7,29.96,NNW,340,3.0,12.0,39,0.00,BKN,BKN,0.01,492.0,WeatherDisplay:10.37,2013-05-14 18:45:00,
2013-05-14 14:50:00,56.2,32.8,29.96,WNW,302,3.0,21.0,41,0.00,BKN,BKN,0.01,348.0,WeatherDisplay:10.37,2013-05-14 18:50:00,
2013-05-14 14:55:00,55.9,33.1,29.96,WNW,282,3.0,8.0,42,0.00,BKN,BKN,0.01,243.0,WeatherDisplay:10.37,2013-05-14 18:55:00,
2013-05-14 15:00:00,55.5,33.3,29.96,WNW,298,5.0,10.0,43,0.00,BKN,BKN,0.01,216.0,WeatherDisplay:10.37,2013-05-14 19:00:00,
2013-05-14 15:05:00,55.6,33.4,29.96,NW,314,3.0,5.0,43,0.00,OVC,OVC,0.01,279.0,WeatherDisplay:10.37,2013-05-14 19:05:00,
2013-05-14 15:10:00,55.9,34.8,29.96,NNW,339,3.0,9.0,45,0.00,OVC,OVC,0.01,311.0,WeatherDisplay:10.37,2013-05-14 19:10:00,
2013-05-14 15:15:00,56.2,34.5,29.96,North,349,6.0,21.0,44,0.00,OVC,OVC,0.01,165.0,WeatherDisplay:10.37,2013-05-14 19:15:00,
2013-05-14 15:20:00,55.7,34.1,29.96,NNW,331,3.0,7.0,44,0.00,OVC,OVC,0.01,200.0,WeatherDisplay:10.37,2013-05-14 19:20:00,
2013-05-14 15:25:00,55.0,39.2,29.96,South,183,2.0,7.0,55,0.00,OVC,OVC,0.01,232.0,WeatherDisplay:10.37,2013-05-14 19:25:00,
2013-05-14 15:30:00,54.2,39.8,29.96,SSE,163,5.0,21.0,58,0.00,OVC,OVC,0.01,243.0,WeatherDisplay:10.37,2013-05-14 19:30:00,
2013-05-14 15:35:00,53.6,40.9,29.96,South,169,2.0,21.0,62,0.00,OVC,OVC,0.01,144.0,WeatherDisplay:10.37,2013-05-14 19:35:00,
2013-05-14 15:40:00,53.2,40.9,29.96,South,170,2.0,21.0,63,0.00,OVC,OVC,0.01,197.0,WeatherDisplay:10.37,2013-05-14 19:40:00,
2013-05-14 15:45:00,53.0,40.4,29.96,SSE,159,2.0,10.0,62,0.00,OVC,OVC,0.01,206.0,WeatherDisplay:10.37,2013-05-14 19:45:00,
2013-05-14 15:50:00,53.0,41.1,29.96,SE,141,3.0,21.0,64,0.00,OVC,OVC,0.01,207.0,WeatherDisplay:10.37,2013-05-14 19:50:00,
2013-05-14 15:55:00,53.1,40.4,29.96,SE,143,3.0,21.0,62,0.00,OVC,OVC,0.01,232.0,WeatherDisplay:10.37,2013-05-14 19:55:00,
2013-05-14 16:00:00,52.9,40.6,29.96,SE,136,3.0,21.0,63,0.00,OVC,OVC,0.01,121.0,WeatherDisplay:10.37,2013-05-14 20:00:00,
2013-05-14 16:05:00,52.9,40.2,29.96,SE,144,2.0,6.0,62,0.00,OVC,OVC,0.01,86.0,WeatherDisplay:10.37,2013-05-14 20:05:00,
2013-05-14 16:10:00,52.6,39.9,29.96,South,186,3.0,7.0,62,0.00,OVC,OVC,0.01,181.0,WeatherDisplay:10.37,2013-05-14 20:10:00,
2013-05-14 16:15:00,52.4,39.8,29.96,WSW,242,6.0,21.0,62,0.00,OVC,OVC,0.01,125.0,WeatherDisplay:10.37,2013-05-14 20:15:00,
2013-05-14 16:20:00,52.1,39.5,29.96,WSW,257,9.0,15.0,62,0.00,OVC,OVC,0.01,295.0,WeatherDisplay:10.37,2013-05-14 20:20:00,
2013-05-14 16:25:00,52.6,40.4,29.96,SW,231,7.0,13.0,63,0.00,OVC,OVC,0.01,726.0,WeatherDisplay:10.37,2013-05-14 20:25:00,
2013-05-14 16:30:00,53.1,39.6,29.96,SW,215,8.0,14.0,60,0.00,OVC,OVC,0.01,227.0,WeatherDisplay:10.37,2013-05-14 20:30:00,
2013-05-14 16:35:00,52.3,39.2,29.96,SW,222,5.0,21.0,61,0.00,OVC,OVC,0.01,236.0,WeatherDisplay:10.37,2013-05-14 20:35:00,
2013-05-14 16:40:00,52.7,40.4,29.96,SW,219,5.0,21.0,63,0.00,OVC,OVC,0.01,564.0,WeatherDisplay:10.37,2013-05-14 20:40:00,
2013-05-14 16:45:00,53.5,40.8,29.96,SSW,211,5.0,14.0,62,0.00,OVC,OVC,0.01,540.0,WeatherDisplay:10.37,2013-05-14 20:45:00,
2013-05-14 16:50:00,54.3,42.0,29.95,SSW,201,2.0,12.0,63,0.00,OVC,OVC,0.01,545.0,WeatherDisplay:10.37,2013-05-14 20:50:00,
2013-05-14 16:55:00,54.8,42.5,29.95,South,188,7.0,21.0,63,0.00,OVC,OVC,0.01,552.0,WeatherDisplay:10.37,2013-05-14 20:55:00,
2013-05-14 17:00:00,54.9,42.5,29.95,SSW,203,7.0,12.0,63,0.00,OVC,OVC,0.01,332.0,WeatherDisplay:10.37,2013-05-14 21:00:00,
2013-05-14 17:05:00,54.2,42.3,29.95,SSW,206,7.0,12.0,64,0.00,OVC,OVC,0.01,174.0,WeatherDisplay:10.37,2013-05-14 21:05:00,
2013-05-14 17:10:00,53.8,41.5,29.95,SSW,192,2.0,12.0,63,0.00,OVC,OVC,0.01,299.0,WeatherDisplay:10.37,2013-05-14 21:10:00,
2013-05-14 17:15:00,54.1,40.9,29.95,SSW,202,3.0,21.0,61,0.00,OVC,OVC,0.01,158.0,WeatherDisplay:10.37,2013-05-14 21:15:00,
2013-05-14 17:20:00,54.0,38.6,29.94,SW,224,7.0,12.0,56,0.00,OVC,OVC,0.01,118.0,WeatherDisplay:10.37,2013-05-14 21:20:00,
2013-05-14 17:25:00,53.6,38.7,29.94,SW,231,5.0,15.0,57,0.00,OVC,OVC,0.01,172.0,WeatherDisplay:10.37,2013-05-14 21:25:00,
2013-05-14 17:30:00,53.4,39.0,29.95,SW,233,7.0,12.0,58,0.00,OVC,OVC,0.01,134.0,WeatherDisplay:10.37,2013-05-14 21:30:00,
2013-05-14 17:35:00,53.8,38.9,29.95,WSW,242,6.0,21.0,57,0.00,OVC,OVC,0.01,461.0,WeatherDisplay:10.37,2013-05-14 21:35:00,
2013-05-14 17:40:00,54.6,39.2,29.95,SW,228,6.0,14.0,56,0.00,OVC,OVC,0.01,346.0,WeatherDisplay:10.37,2013-05-14 21:40:00,
2013-05-14 17:45:00,54.8,39.4,29.94,SW,224,8.0,13.0,56,0.00,OVC,OVC,0.01,352.0,WeatherDisplay:10.37,2013-05-14 21:45:00,
2013-05-14 17:50:00,54.8,40.3,29.94,WSW,241,3.0,21.0,58,0.00,OVC,OVC,0.01,355.0,WeatherDisplay:10.37,2013-05-14 21:50:00,
2013-05-14 17:55:00,55.1,40.6,29.94,WSW,255,3.0,12.0,58,0.00,OVC,OVC,0.01,285.0,WeatherDisplay:10.37,2013-05-14 21:55:00,
2013-05-14 18:00:00,55.1,40.1,29.94,WSW,250,10.0,18.0,57,0.00,OVC,OVC,0.01,287.0,WeatherDisplay:10.37,2013-05-14 22:00:00,
2013-05-14 18:05:00,54.7,39.8,29.94,WSW,244,6.0,15.0,57,0.00,SCT,SCT,0.01,271.0,WeatherDisplay:10.37,2013-05-14 22:05:00,
2013-05-14 18:10:00,54.7,39.8,29.94,WSW,246,3.0,21.0,57,0.00,SCT,SCT,0.01,253.0,WeatherDisplay:10.37,2013-05-14 22:10:00,
2013-05-14 18:15:00,54.7,39.3,29.94,WSW,251,3.0,12.0,56,0.00,SCT,SCT,0.01,77.0,WeatherDisplay:10.37,2013-05-14 22:15:00,
2013-05-14 18:20:00,54.4,39.0,29.93,WSW,248,8.0,15.0,56,0.00,SCT,SCT,0.01,125.0,WeatherDisplay:10.37,2013-05-14 22:20:00,
2013-05-14 18:25:00,53.5,39.1,29.93,WSW,245,7.0,14.0,58,0.00,SCT,SCT,0.01,54.0,WeatherDisplay:10.37,2013-05-14 22:25:00,
2013-05-14 18:30:00,53.1,39.6,29.94,WSW,242,6.0,13.0,60,0.00,SCT,SCT,0.01,72.0,WeatherDisplay:10.37,2013-05-14 22:30:00,
2013-05-14 18:35:00,53.0,39.9,29.94,WSW,244,5.0,21.0,61,0.00,SCT,SCT,0.01,74.0,WeatherDisplay:10.37,2013-05-14 22:35:00,
2013-05-14 18:40:00,53.0,40.4,29.94,WSW,247,7.0,15.0,62,0.00,SCT,SCT,0.01,178.0,WeatherDisplay:10.37,2013-05-14 22:40:00,
2013-05-14 18:45:00,53.6,40.9,29.94,WSW,247,6.0,21.0,62,0.00,SCT,SCT,0.01,179.0,WeatherDisplay:10.37,2013-05-14 22:45:00,
2013-05-14 18:50:00,54.2,40.6,29.94,WSW,249,6.0,16.0,60,0.00,SCT,SCT,0.01,162.0,WeatherDisplay:10.37,2013-05-14 22:50:00,
2013-05-14 18:55:00,54.1,39.7,29.94,WSW,253,7.0,15.0,58,0.00,SCT,SCT,0.01,137.0,WeatherDisplay:10.37,2013-05-14 22:55:00,
2013-05-14 19:00:00,54.2,40.2,29.94,West,260,5.0,10.0,59,0.00,SCT,SCT,0.01,83.0,WeatherDisplay:10.37,2013-05-14 23:00:00,
2013-05-14 19:05:00,54.0,40.4,29.94,WSW,245,3.0,8.0,60,0.00,SCT,SCT,0.01,63.0,WeatherDisplay:10.37,2013-05-14 23:05:00,
2013-05-14 19:10:00,53.5,40.4,29.94,WSW,238,2.0,21.0,61,0.00,SCT,SCT,0.01,26.0,WeatherDisplay:10.37,2013-05-14 23:10:00,
2013-05-14 19:20:00,52.6,40.8,29.94,WSW,258,3.0,12.0,64,0.00,SCT,SCT,0.01,28.0,WeatherDisplay:10.37,2013-05-14 23:20:00,
2013-05-14 19:25:00,52.3,40.5,29.94,WSW,245,6.0,21.0,64,0.00,SCT,SCT,0.01,16.0,WeatherDisplay:10.37,2013-05-14 23:25:00,
2013-05-14 19:30:00,52.1,40.3,29.95,WSW,242,7.0,21.0,64,0.00,SCT,SCT,0.01,12.0,WeatherDisplay:10.37,2013-05-14 23:30:00,
2013-05-14 19:35:00,51.9,40.1,29.95,WSW,255,5.0,13.0,64,0.00,SCT,SCT,0.01,9.0,WeatherDisplay:10.37,2013-05-14 23:35:00,
2013-05-14 19:40:00,51.8,40.0,29.95,WSW,249,5.0,9.0,64,0.00,SCT,SCT,0.01,7.0,WeatherDisplay:10.37,2013-05-14 23:40:00,
2013-05-14 19:45:00,51.7,39.9,29.95,WSW,243,3.0,9.0,64,0.00,SCT,SCT,0.01,5.0,WeatherDisplay:10.37,2013-05-14 23:45:00,
2013-05-14 19:50:00,51.5,40.1,29.95,WSW,246,3.0,6.0,65,0.00,SCT,SCT,0.01,0.0,WeatherDisplay:10.37,2013-05-14 23:50:00,
2013-05-14 19:55:00,51.3,40.3,29.95,WSW,249,2.0,5.0,66,0.00,SCT,SCT,0.01,0.0,WeatherDisplay:10.37,2013-05-14 23:55:00,
2013-05-14 20:00:00,51.1,40.1,29.95,WSW,251,2.0,6.0,66,0.00,SCT,SCT,0.01,0.0,WeatherDisplay:10.37,2013-05-15 00:00:00,
2013-05-14 20:05:00,51.0,40.4,29.95,WSW,258,2.0,5.0,67,0.00,SCT,SCT,0.01,0.0,WeatherDisplay:10.37,2013-05-15 00:05:00,
2013-05-14 20:10:00,50.8,40.7,29.95,WSW,252,1.0,5.0,68,0.00,SCT,SCT,0.01,0.0,WeatherDisplay:10.37,2013-05-15 00:10:00,
2013-05-14 20:15:00,50.7,40.9,29.95,WSW,251,1.0,7.0,69,0.00,SCT,SCT,0.01,0.0,WeatherDisplay:10.37,2013-05-15 00:15:00,
2013-05-14 20:20:00,50.6,41.1,29.95,West,266,1.0,21.0,70,0.00,SCT,SCT,0.01,0.0,WeatherDisplay:10.37,2013-05-15 00:20:00,
2013-05-14 20:25:00,50.4,41.0,29.95,West,265,2.0,21.0,70,0.00,SCT,SCT,0.01,0.0,WeatherDisplay:10.37,2013-05-15 00:25:00,
2013-05-14 20:30:00,50.3,41.3,29.95,WSW,257,1.0,21.0,71,0.00,SCT,SCT,0.01,0.0,WeatherDisplay:10.37,2013-05-15 00:30:00,
2013-05-14 20:35:00,50.1,41.1,29.95,WSW,250,1.0,4.0,71,0.00,SCT,SCT,0.01,0.0,WeatherDisplay:10.37,2013-05-15 00:35:00,
2013-05-14 20:40:00,50.0,41.3,29.95,WSW,254,2.0,3.0,72,0.00,SCT,SCT,0.01,0.0,WeatherDisplay:10.37,2013-05-15 00:40:00,
2013-05-14 20:45:00,49.9,41.2,29.96,WSW,258,1.0,2.0,72,0.00,SCT,SCT,0.01,0.0,WeatherDisplay:10.37,2013-05-15 00:45:00,
2013-05-14 20:50:00,49.7,41.0,29.96,WSW,254,2.0,21.0,72,0.00,SCT,SCT,0.01,0.0,WeatherDisplay:10.37,2013-05-15 00:50:00,
2013-05-14 20:55:00,49.7,41.0,29.96,WSW,253,2.0,21.0,72,0.00,SCT,SCT,0.01,0.0,WeatherDisplay:10.37,2013-05-15 00:55:00,
2013-05-14 21:00:00,49.7,41.0,29.96,WSW,248,2.0,4.0,72,0.00,SCT,SCT,0.01,0.0,WeatherDisplay:10.37,2013-05-15 01:00:00,
2013-05-14 21:05:00,49.7,41.0,29.97,WSW,256,2.0,5.0,72,0.00,CLR,CLR,0.01,0.0,WeatherDisplay:10.37,2013-05-15 01:05:00,
2013-05-14 21:10:00,49.7,41.0,29.97,WSW,258,2.0,4.0,72,0.00,CLR,CLR,0.01,0.0,WeatherDisplay:10.37,2013-05-15 01:10:00,
2013-05-14 21:15:00,49.7,41.4,29.97,West,260,2.0,3.0,73,0.00,CLR,CLR,0.01,0.0,WeatherDisplay:10.37,2013-05-15 01:15:00,
2013-05-14 21:20:00,49.7,41.4,29.97,WSW,251,2.0,6.0,73,0.00,CLR,CLR,0.01,0.0,WeatherDisplay:10.37,2013-05-15 01:20:00,
2013-05-14 21:25:00,49.7,41.4,29.97,WSW,248,2.0,6.0,73,0.00,CLR,CLR,0.01,0.0,WeatherDisplay:10.37,2013-05-15 01:25:00,
2013-05-14 21:30:00,49.7,41.4,29.98,WSW,251,2.0,5.0,73,0.00,CLR,CLR,0.01,0.0,WeatherDisplay:10.37,2013-05-15 01:30:00,
2013-05-14 21:35:00,49.7,41.4,29.98,West,262,1.0,5.0,73,0.00,CLR,CLR,0.01,0.0,WeatherDisplay:10.37,2013-05-15 01:35:00,
2013-05-14 21:40:00,49.6,41.3,29.98,West,266,1.0,4.0,73,0.00,CLR,CLR,0.01,0.0,WeatherDisplay:10.37,2013-05-15 01:40:00,
2013-05-14 21:45:00,49.5,41.6,29.98,West,267,2.0,21.0,74,0.00,CLR,CLR,0.01,0.0,WeatherDisplay:10.37,2013-05-15 01:45:00,
2013-05-14 21:50:00,49.5,41.6,29.98,West,266,1.0,7.0,74,0.00,CLR,CLR,0.01,0.0,WeatherDisplay:10.37,2013-05-15 01:50:00,
2013-05-14 21:55:00,49.5,41.6,29.98,West,269,3.0,7.0,74,0.00,CLR,CLR,0.01,0.0,WeatherDisplay:10.37,2013-05-15 01:55:00,
2013-05-14 22:00:00,49.6,41.3,29.98,West,278,1.0,4.0,73,0.00,CLR,CLR,0.01,0.0,WeatherDisplay:10.37,2013-05-15 02:00:00,
2013-05-14 22:05:00,49.6,41.7,29.98,West,274,1.0,3.0,74,0.00,OVC,OVC,0.01,0.0,WeatherDisplay:10.37,2013-05-15 02:05:00,
2013-05-14 22:10:00,49.6,41.7,29.98,WSW,257,2.0,21.0,74,0.00,OVC,OVC,0.01,0.0,WeatherDisplay:10.37,2013-05-15 02:10:00,
2013-05-14 22:15:00,49.6,41.7,29.99,West,262,1.0,4.0,74,0.00,OVC,OVC,0.01,0.0,WeatherDisplay:10.37,2013-05-15 02:15:00,
2013-05-14 22:20:00,49.7,41.7,29.99,West,275,2.0,7.0,74,0.00,OVC,OVC,0.01,0.0,WeatherDisplay:10.37,2013-05-15 02:20:00,
2013-05-14 22:25:00,49.7,41.4,29.99,West,265,2.0,21.0,73,0.00,OVC,OVC,0.01,0.0,WeatherDisplay:10.37,2013-05-15 02:25:00,
2013-05-14 22:30:00,49.8,41.5,29.99,West,261,1.0,5.0,73,0.00,OVC,OVC,0.01,0.0,WeatherDisplay:10.37,2013-05-15 02:30:00,
2013-05-14 22:35:00,49.9,41.6,29.99,West,273,2.0,21.0,73,0.00,OVC,OVC,0.01,0.0,WeatherDisplay:10.37,2013-05-15 02:35:00,
2013-05-14 22:40:00,49.9,41.6,29.99,WNW,282,2.0,5.0,73,0.00,OVC,OVC,0.01,0.0,WeatherDisplay:10.37,2013-05-15 02:40:00,
2013-05-14 22:45:00,49.9,41.6,29.99,WNW,282,2.0,4.0,73,0.00,OVC,OVC,0.01,0.0,WeatherDisplay:10.37,2013-05-15 02:45:00,
2013-05-14 22:50:00,49.9,41.6,29.99,WNW,286,1.0,4.0,73,0.00,OVC,OVC,0.01,0.0,WeatherDisplay:10.37,2013-05-15 02:50:00,
2013-05-14 22:55:00,49.9,41.2,29.99,WNW,292,3.0,6.0,72,0.00,OVC,OVC,0.01,0.0,WeatherDisplay:10.37,2013-05-15 02:55:00,
2013-05-14 23:00:00,50.0,41.0,29.99,WNW,292,2.0,6.0,71,0.00,OVC,OVC,0.01,0.0,WeatherDisplay:10.37,2013-05-15 03:00:00,
2013-05-14 23:05:00,50.0,40.6,29.99,WNW,296,2.0,5.0,70,0.00,OVC,OVC,0.01,0.0,WeatherDisplay:10.37,2013-05-15 03:05:00,
2013-05-14 23:10:00,50.0,40.6,29.99,WNW,293,2.0,6.0,70,0.00,OVC,OVC,0.01,0.0,WeatherDisplay:10.37,2013-05-15 03:10:00,
2013-05-14 23:15:00,50.0,40.2,29.99,WNW,296,2.0,4.0,69,0.00,OVC,OVC,0.01,0.0,WeatherDisplay:10.37,2013-05-15 03:15:00,
2013-05-14 23:20:00,49.9,40.1,29.99,WNW,283,2.0,5.0,69,0.00,OVC,OVC,0.01,0.0,WeatherDisplay:10.37,2013-05-15 03:20:00,
2013-05-14 23:30:00,49.9,39.8,29.99,WNW,293,2.0,5.0,68,0.00,OVC,OVC,0.01,0.0,WeatherDisplay:10.37,2013-05-15 03:30:00,
2013-05-14 23:35:00,49.8,39.3,29.99,WNW,294,2.0,21.0,67,0.00,OVC,OVC,0.01,0.0,WeatherDisplay:10.37,2013-05-15 03:35:00,
2013-05-14 23:40:00,49.8,38.9,29.99,WNW,293,2.0,4.0,66,0.00,OVC,OVC,0.01,0.0,WeatherDisplay:10.37,2013-05-15 03:40:00,
2013-05-14 23:45:00,49.7,38.8,29.99,WNW,298,1.0,4.0,66,0.00,OVC,OVC,0.01,0.0,WeatherDisplay:10.37,2013-05-15 03:45:00,
2013-05-14 23:50:00,49.5,38.6,29.99,WNW,300,2.0,3.0,66,0.00,OVC,OVC,0.01,0.0,WeatherDisplay:10.37,2013-05-15 03:50:00,
2013-05-14 23:55:00,49.2,38.7,29.99,WNW,298,0.0,3.0,67,0.00,OVC,OVC,0.01,0.0,WeatherDisplay:10.37,2013-05-15 03:55:00,